ARA Libertad — LOLD — position and weather

sailwx.info

Track history (hours):
 
Tides and Currents Weather Stations Pressure Air Temp Water Temp Dewpoint Dewpoint Depression Visibility Wind Speed Wind Dir Waves Ship Positions

ARA Libertad (Argentina)

Last reported at 2017-Aug-22 20:05 UTC. Time now 2017-Aug-22 22:32 UTC.
Position N 28°31' W 016°10'.

Length 104 m; draft 6.5 m.

Type: Other ship. MMSI: 701000001.

Date/timePositionNaut miles runAvg speedWind from/ knotsBaromVisibWave heightAir tempDewpointWater temp
2017-Aug-22 20:05N 28°31' W 016°10'0 0.0
2017-Aug-22 19:53N 28°31' W 016°10'0 0.0
2017-Aug-22 19:11N 28°31' W 016°10'0 0.0
2017-Aug-22 18:56N 28°31' W 016°10'0 0.0
2017-Aug-22 18:26N 28°31' W 016°10'0 0.0
2017-Aug-22 17:44N 28°31' W 016°10'0 0.0
2017-Aug-22 15:59N 28°31' W 016°10'0 0.0
2017-Aug-22 13:59N 28°31' W 016°10'0 0.0
2017-Aug-22 12:29N 28°31' W 016°09'0 0.0
2017-Aug-22 08:53N 28°31' W 016°09'0 0.0
2017-Aug-22 07:08N 28°31' W 016°10'0 0.0
2017-Aug-22 05:38N 28°31' W 016°10'0 0.1
2017-Aug-22 05:11N 28°31' W 016°09'0 0.1
2017-Aug-22 04:56N 28°31' W 016°09'0 0.0
2017-Aug-22 04:11N 28°31' W 016°09'0 0.0
2017-Aug-22 03:56N 28°31' W 016°09'0 0.0
2017-Aug-22 00:32N 28°31' W 016°09'0 0.0
2017-Aug-22 00:29N 28°31' W 016°09'0 0.0
2017-Aug-21 23:55N 28°31' W 016°09'0 0.0
2017-Aug-21 23:30N 28°31' W 016°09'0 0.0
2017-Aug-21 22:52N 28°31' W 016°09'0 0.0
2017-Aug-21 22:25N 28°31' W 016°09'0 0.0
2017-Aug-21 21:57N 28°31' W 016°09'0 0.0
2017-Aug-21 21:21N 28°31' W 016°09'0 0.0
2017-Aug-21 20:55N 28°31' W 016°09'0 0.0
2017-Aug-21 20:19N 28°31' W 016°10'0 0.0
2017-Aug-21 19:54N 28°31' W 016°10'0 0.0
2017-Aug-21 19:30N 28°31' W 016°10'0 0.0
2017-Aug-21 18:52N 28°31' W 016°10'0 0.0
2017-Aug-21 18:12N 28°31' W 016°10'0 0.0
2017-Aug-21 17:53N 28°31' W 016°10'0 0.1
2017-Aug-21 17:28N 28°31' W 016°09'0 0.0
2017-Aug-21 16:59N 28°31' W 016°10'0 0.0
2017-Aug-21 16:30N 28°31' W 016°09'0 0.0
2017-Aug-21 16:00N 28°31' W 016°09'0 0.0
2017-Aug-21 15:29N 28°31' W 016°09'0 0.0
2017-Aug-21 14:59N 28°31' W 016°09'0 0.0
2017-Aug-21 14:27N 28°31' W 016°09'0 0.0
2017-Aug-21 14:00N 28°31' W 016°09'0 0.2
2017-Aug-21 13:30N 28°31' W 016°10'4 8.0
2017-Aug-21 12:59N 28°28' W 016°13'710.0
2017-Aug-21 12:15N 28°22' W 016°17'310.3
2017-Aug-21 12:00N 28°19' W 016°18'610.1
2017-Aug-21 11:23N 28°13' W 016°20'26 2.6
2017-Aug-21 01:33N 27°49' W 016°13'3 5.9
2017-Aug-21 01:06N 27°47' W 016°10'1 5.9
2017-Aug-21 01:00N 27°47' W 016°09'5 6.8
2017-Aug-21 00:12N 27°46' W 016°03'2 7.6
2017-Aug-20 23:59N 27°46' W 016°01'4 7.4
2017-Aug-20 23:28N 27°44' W 015°57'4 7.6
2017-Aug-20 22:52N 27°42' W 015°53'2 5.2
2017-Aug-20 22:24N 27°40' W 015°52'3 7.3
2017-Aug-20 22:00N 27°39' W 015°49'4 7.0
2017-Aug-20 21:26N 27°38' W 015°45'2 4.1
2017-Aug-20 21:00N 27°40' W 015°46'4 1.8
2017-Aug-20 18:49N 27°42' W 015°49'2 2.2
2017-Aug-20 17:45N 27°41' W 015°47'1 6.2
2017-Aug-20 17:30N 27°42' W 015°48'4 0.9
2017-Aug-20 13:31N 27°39' W 015°47'1 7.2
2017-Aug-20 13:24N 27°38' W 015°46'2 2.8
2017-Aug-20 12:37N 27°40' W 015°47'1 6.2
2017-Aug-20 12:23N 27°41' W 015°48'1 0.7
2017-Aug-20 11:09N 27°42' W 015°49'2 7.1
2017-Aug-20 10:55N 27°40' W 015°47'3 6.7
2017-Aug-20 10:25N 27°38' W 015°45'2 4.2
2017-Aug-20 09:58N 27°37' W 015°43'3 6.2
2017-Aug-20 09:28N 27°37' W 015°47'3 5.3
2017-Aug-20 08:48N 27°40' W 015°50'3 3.4
2017-Aug-20 07:55N 27°40' W 015°46'3 7.5
2017-Aug-20 07:28N 27°38' W 015°43'5 7.3
2017-Aug-20 06:46N 27°35' W 015°39'31 7.4
2017-Aug-20 02:33N 27°43' W 015°05'2 8.0
2017-Aug-20 02:16N 27°44' W 015°02'2 7.8
2017-Aug-20 01:58N 27°45' W 014°60'5 7.7
2017-Aug-20 01:19N 27°47' W 014°55'4 7.5
2017-Aug-20 00:49N 27°48' W 014°51'21 6.9
2017-Aug-19 21:48N 27°55' W 014°28'3 5.9
2017-Aug-19 21:17N 27°56' W 014°25'4 5.6
2017-Aug-19 20:40N 27°57' W 014°22'1 5.8
2017-Aug-19 20:30N 27°58' W 014°21'17 6.6
2017-Aug-19 17:52N 28°07' W 014°04'36 7.9
2017-Aug-19 13:21N 28°38' W 013°45'511.3
2017-Aug-19 12:54N 28°43' W 013°45'410.9
2017-Aug-19 12:30N 28°48' W 013°43'610.2
2017-Aug-19 11:56N 28°51' W 013°39'511.2
2017-Aug-19 11:30N 28°54' W 013°34'612.3
2017-Aug-19 11:00N 28°57' W 013°28'611.8
2017-Aug-19 10:30N 29°00' W 013°22'5312.0
2017-Aug-19 06:02N 29°41' W 012°43'112.1
2017-Aug-19 06:00N 29°42' W 012°42'812.4
2017-Aug-19 05:22N 29°48' W 012°36'512.4
2017-Aug-19 05:00N 29°51' W 012°33'51311.6
2017-Aug-17 08:49N 35°59' W 005°27'411.4
2017-Aug-17 08:30N 36°00' W 005°23'611.4
2017-Aug-17 08:00N 36°02' W 005°16'222 9.9
2017-Aug-16 09:41N 37°24' W 000°59'211.8
2017-Aug-16 09:29N 37°25' W 000°56'611.9
2017-Aug-16 08:59N 37°27' W 000°49'611.9
2017-Aug-16 08:30N 37°30' W 000°43'611.8
2017-Aug-16 07:59N 37°33' W 000°36'611.7
2017-Aug-16 07:30N 37°36' W 000°30'611.8
2017-Aug-16 06:58N 37°39' W 000°23'511.9
2017-Aug-16 06:30N 37°42' W 000°17'9811.4
2017-Aug-15 21:53N 38°32' E 001°30'711.5
2017-Aug-15 21:18N 38°35' E 001°38'311.7
2017-Aug-15 21:00N 38°36' E 001°42'611.7
2017-Aug-15 20:28N 38°39' E 001°49'711.5
2017-Aug-15 19:52N 38°42' E 001°58'411.6
2017-Aug-15 19:29N 38°44' E 002°03'611.6
2017-Aug-15 19:00N 38°46' E 002°09'611.8
2017-Aug-15 18:30N 38°47' E 002°17'611.8
2017-Aug-15 18:00N 38°50' E 002°23'612.0
2017-Aug-15 17:30N 38°53' E 002°30'612.0
2017-Aug-15 17:00N 38°55' E 002°37'612.0
2017-Aug-15 16:30N 38°58' E 002°44'611.9
2017-Aug-15 16:00N 39°00' E 002°51'611.8
2017-Aug-15 15:29N 39°03' E 002°58'611.9
2017-Aug-15 15:00N 39°05' E 003°05'611.8
2017-Aug-15 14:30N 39°08' E 003°12'611.8
2017-Aug-15 14:00N 39°12' E 003°18'611.8
2017-Aug-15 13:30N 39°15' E 003°24'611.8
2017-Aug-15 13:00N 39°19' E 003°30'611.8
2017-Aug-15 12:28N 39°23' E 003°36'1011.8
2017-Aug-15 11:37N 39°29' E 003°46'111.6
2017-Aug-15 11:30N 39°30' E 003°48'711.4
2017-Aug-15 10:53N 39°34' E 003°55'54 7.1
2017-Aug-15 03:22N 40°27' E 003°49'23 8.0
2017-Aug-15 00:32N 40°41' E 003°25'0 7.5
2017-Aug-15 00:30N 40°41' E 003°25'4 7.6
2017-Aug-14 23:56N 40°43' E 003°20'3 8.0
2017-Aug-14 23:30N 40°45' E 003°17'4 7.5
2017-Aug-14 22:56N 40°48' E 003°12'410.3
2017-Aug-14 22:30N 40°51' E 003°07'510.5
2017-Aug-14 22:00N 40°55' E 003°03'610.7
2017-Aug-14 21:29N 40°57' E 002°56'510.5
2017-Aug-14 20:59N 40°60' E 002°50'510.2
2017-Aug-14 20:30N 41°03' E 002°45'510.3
2017-Aug-14 20:00N 41°06' E 002°40'610.5
2017-Aug-14 19:27N 41°09' E 002°33'510.6
2017-Aug-14 18:57N 41°12' E 002°27'510.9
2017-Aug-14 18:29N 41°15' E 002°22'511.2
2017-Aug-14 18:00N 41°19' E 002°17'5 9.7
2017-Aug-14 17:29N 41°21' E 002°11'1 1.0
2017-Aug-14 16:21N 41°23' E 002°11'0 0.0
2017-Aug-14 15:35N 41°23' E 002°11'0 0.0
2017-Aug-14 15:30N 41°23' E 002°11'0 0.0
2017-Aug-14 14:21N 41°23' E 002°11'0 0.0
2017-Aug-14 13:39N 41°23' E 002°11'0 0.0
2017-Aug-14 13:30N 41°23' E 002°11'0 0.0
2017-Aug-14 11:44N 41°23' E 002°11'0 0.0
2017-Aug-14 09:23N 41°23' E 002°11'0 0.0
2017-Aug-14 06:38N 41°23' E 002°11'0 0.0
2017-Aug-14 06:30N 41°23' E 002°11'  
Track history (hours):
 
Tides and Currents Weather Stations Pressure Air Temp Water Temp Dewpoint Dewpoint Depression Visibility Wind Speed Wind Dir Waves Ship Positions

ARA Libertad (Argentina)

Last reported at 2017-Aug-22 20:05 UTC. Time now 2017-Aug-22 22:32 UTC.
Position N 28°31' W 016°10'.

Length 104 m; draft 6.5 m.

Type: Other ship. MMSI: 701000001.

Date/timePositionNaut miles runAvg speedWind from/ knotsBaromVisibWave heightAir tempDewpointWater temp
2017-Aug-22 20:05N 28°31' W 016°10'0 0.0
2017-Aug-22 19:53N 28°31' W 016°10'0 0.0
2017-Aug-22 19:11N 28°31' W 016°10'0 0.0
2017-Aug-22 18:56N 28°31' W 016°10'0 0.0
2017-Aug-22 18:26N 28°31' W 016°10'0 0.0
2017-Aug-22 17:44N 28°31' W 016°10'0 0.0
2017-Aug-22 15:59N 28°31' W 016°10'0 0.0
2017-Aug-22 13:59N 28°31' W 016°10'0 0.0
2017-Aug-22 12:29N 28°31' W 016°09'0 0.0
2017-Aug-22 08:53N 28°31' W 016°09'0 0.0
2017-Aug-22 07:08N 28°31' W 016°10'0 0.0
2017-Aug-22 05:38N 28°31' W 016°10'0 0.1
2017-Aug-22 05:11N 28°31' W 016°09'0 0.1
2017-Aug-22 04:56N 28°31' W 016°09'0 0.0
2017-Aug-22 04:11N 28°31' W 016°09'0 0.0
2017-Aug-22 03:56N 28°31' W 016°09'0 0.0
2017-Aug-22 00:32N 28°31' W 016°09'0 0.0
2017-Aug-22 00:29N 28°31' W 016°09'0 0.0
2017-Aug-21 23:55N 28°31' W 016°09'0 0.0
2017-Aug-21 23:30N 28°31' W 016°09'0 0.0
2017-Aug-21 22:52N 28°31' W 016°09'0 0.0
2017-Aug-21 22:25N 28°31' W 016°09'0 0.0
2017-Aug-21 21:57N 28°31' W 016°09'0 0.0
2017-Aug-21 21:21N 28°31' W 016°09'0 0.0
2017-Aug-21 20:55N 28°31' W 016°09'0 0.0
2017-Aug-21 20:19N 28°31' W 016°10'0 0.0
2017-Aug-21 19:54N 28°31' W 016°10'0 0.0
2017-Aug-21 19:30N 28°31' W 016°10'0 0.0
2017-Aug-21 18:52N 28°31' W 016°10'0 0.0
2017-Aug-21 18:12N 28°31' W 016°10'0 0.0
2017-Aug-21 17:53N 28°31' W 016°10'0 0.1
2017-Aug-21 17:28N 28°31' W 016°09'0 0.0
2017-Aug-21 16:59N 28°31' W 016°10'0 0.0
2017-Aug-21 16:30N 28°31' W 016°09'0 0.0
2017-Aug-21 16:00N 28°31' W 016°09'0 0.0
2017-Aug-21 15:29N 28°31' W 016°09'0 0.0
2017-Aug-21 14:59N 28°31' W 016°09'0 0.0
2017-Aug-21 14:27N 28°31' W 016°09'0 0.0
2017-Aug-21 14:00N 28°31' W 016°09'0 0.2
2017-Aug-21 13:30N 28°31' W 016°10'4 8.0
2017-Aug-21 12:59N 28°28' W 016°13'710.0
2017-Aug-21 12:15N 28°22' W 016°17'310.3
2017-Aug-21 12:00N 28°19' W 016°18'610.1
2017-Aug-21 11:23N 28°13' W 016°20'26 2.6
2017-Aug-21 01:33N 27°49' W 016°13'3 5.9
2017-Aug-21 01:06N 27°47' W 016°10'1 5.9
2017-Aug-21 01:00N 27°47' W 016°09'5 6.8
2017-Aug-21 00:12N 27°46' W 016°03'2 7.6
2017-Aug-20 23:59N 27°46' W 016°01'4 7.4
2017-Aug-20 23:28N 27°44' W 015°57'4 7.6
2017-Aug-20 22:52N 27°42' W 015°53'2 5.2
2017-Aug-20 22:24N 27°40' W 015°52'3 7.3
2017-Aug-20 22:00N 27°39' W 015°49'4 7.0
2017-Aug-20 21:26N 27°38' W 015°45'2 4.1
2017-Aug-20 21:00N 27°40' W 015°46'4 1.8
2017-Aug-20 18:49N 27°42' W 015°49'2 2.2
2017-Aug-20 17:45N 27°41' W 015°47'1 6.2
2017-Aug-20 17:30N 27°42' W 015°48'4 0.9
2017-Aug-20 13:31N 27°39' W 015°47'1 7.2
2017-Aug-20 13:24N 27°38' W 015°46'2 2.8
2017-Aug-20 12:37N 27°40' W 015°47'1 6.2
2017-Aug-20 12:23N 27°41' W 015°48'1 0.7
2017-Aug-20 11:09N 27°42' W 015°49'2 7.1
2017-Aug-20 10:55N 27°40' W 015°47'3 6.7
2017-Aug-20 10:25N 27°38' W 015°45'2 4.2
2017-Aug-20 09:58N 27°37' W 015°43'3 6.2
2017-Aug-20 09:28N 27°37' W 015°47'3 5.3
2017-Aug-20 08:48N 27°40' W 015°50'3 3.4
2017-Aug-20 07:55N 27°40' W 015°46'3 7.5
2017-Aug-20 07:28N 27°38' W 015°43'5 7.3
2017-Aug-20 06:46N 27°35' W 015°39'31 7.4
2017-Aug-20 02:33N 27°43' W 015°05'2 8.0
2017-Aug-20 02:16N 27°44' W 015°02'2 7.8
2017-Aug-20 01:58N 27°45' W 014°60'5 7.7
2017-Aug-20 01:19N 27°47' W 014°55'4 7.5
2017-Aug-20 00:49N 27°48' W 014°51'21 6.9
2017-Aug-19 21:48N 27°55' W 014°28'3 5.9
2017-Aug-19 21:17N 27°56' W 014°25'4 5.6
2017-Aug-19 20:40N 27°57' W 014°22'1 5.8
2017-Aug-19 20:30N 27°58' W 014°21'17 6.6
2017-Aug-19 17:52N 28°07' W 014°04'36 7.9
2017-Aug-19 13:21N 28°38' W 013°45'511.3
2017-Aug-19 12:54N 28°43' W 013°45'410.9
2017-Aug-19 12:30N 28°48' W 013°43'610.2
2017-Aug-19 11:56N 28°51' W 013°39'511.2
2017-Aug-19 11:30N 28°54' W 013°34'612.3
2017-Aug-19 11:00N 28°57' W 013°28'611.8
2017-Aug-19 10:30N 29°00' W 013°22'5312.0
2017-Aug-19 06:02N 29°41' W 012°43'112.1
2017-Aug-19 06:00N 29°42' W 012°42'812.4
2017-Aug-19 05:22N 29°48' W 012°36'512.4
2017-Aug-19 05:00N 29°51' W 012°33'51311.6
2017-Aug-17 08:49N 35°59' W 005°27'411.4
2017-Aug-17 08:30N 36°00' W 005°23'611.4
2017-Aug-17 08:00N 36°02' W 005°16'222 9.9
2017-Aug-16 09:41N 37°24' W 000°59'211.8
2017-Aug-16 09:29N 37°25' W 000°56'611.9
2017-Aug-16 08:59N 37°27' W 000°49'611.9
2017-Aug-16 08:30N 37°30' W 000°43'611.8
2017-Aug-16 07:59N 37°33' W 000°36'611.7
2017-Aug-16 07:30N 37°36' W 000°30'611.8
2017-Aug-16 06:58N 37°39' W 000°23'511.9
2017-Aug-16 06:30N 37°42' W 000°17'9811.4
2017-Aug-15 21:53N 38°32' E 001°30'711.5
2017-Aug-15 21:18N 38°35' E 001°38'311.7
2017-Aug-15 21:00N 38°36' E 001°42'611.7
2017-Aug-15 20:28N 38°39' E 001°49'711.5
2017-Aug-15 19:52N 38°42' E 001°58'411.6
2017-Aug-15 19:29N 38°44' E 002°03'611.6
2017-Aug-15 19:00N 38°46' E 002°09'611.8
2017-Aug-15 18:30N 38°47' E 002°17'611.8
2017-Aug-15 18:00N 38°50' E 002°23'612.0
2017-Aug-15 17:30N 38°53' E 002°30'612.0
2017-Aug-15 17:00N 38°55' E 002°37'612.0
2017-Aug-15 16:30N 38°58' E 002°44'611.9
2017-Aug-15 16:00N 39°00' E 002°51'611.8
2017-Aug-15 15:29N 39°03' E 002°58'611.9
2017-Aug-15 15:00N 39°05' E 003°05'611.8
2017-Aug-15 14:30N 39°08' E 003°12'611.8
2017-Aug-15 14:00N 39°12' E 003°18'611.8
2017-Aug-15 13:30N 39°15' E 003°24'611.8
2017-Aug-15 13:00N 39°19' E 003°30'611.8
2017-Aug-15 12:28N 39°23' E 003°36'1011.8
2017-Aug-15 11:37N 39°29' E 003°46'111.6
2017-Aug-15 11:30N 39°30' E 003°48'711.4
2017-Aug-15 10:53N 39°34' E 003°55'54 7.1
2017-Aug-15 03:22N 40°27' E 003°49'23 8.0
2017-Aug-15 00:32N 40°41' E 003°25'0 7.5
2017-Aug-15 00:30N 40°41' E 003°25'4 7.6
2017-Aug-14 23:56N 40°43' E 003°20'3 8.0
2017-Aug-14 23:30N 40°45' E 003°17'4 7.5
2017-Aug-14 22:56N 40°48' E 003°12'410.3
2017-Aug-14 22:30N 40°51' E 003°07'510.5
2017-Aug-14 22:00N 40°55' E 003°03'610.7
2017-Aug-14 21:29N 40°57' E 002°56'510.5
2017-Aug-14 20:59N 40°60' E 002°50'510.2
2017-Aug-14 20:30N 41°03' E 002°45'510.3
2017-Aug-14 20:00N 41°06' E 002°40'610.5
2017-Aug-14 19:27N 41°09' E 002°33'510.6
2017-Aug-14 18:57N 41°12' E 002°27'510.9
2017-Aug-14 18:29N 41°15' E 002°22'511.2
2017-Aug-14 18:00N 41°19' E 002°17'5 9.7
2017-Aug-14 17:29N 41°21' E 002°11'1 1.0
2017-Aug-14 16:21N 41°23' E 002°11'0 0.0
2017-Aug-14 15:35N 41°23' E 002°11'0 0.0
2017-Aug-14 15:30N 41°23' E 002°11'0 0.0
2017-Aug-14 14:21N 41°23' E 002°11'0 0.0
2017-Aug-14 13:39N 41°23' E 002°11'0 0.0
2017-Aug-14 13:30N 41°23' E 002°11'0 0.0
2017-Aug-14 11:44N 41°23' E 002°11'0 0.0
2017-Aug-14 09:23N 41°23' E 002°11'0 0.0
2017-Aug-14 06:38N 41°23' E 002°11'0 0.0
2017-Aug-14 06:30N 41°23' E 002°11'  

Dump ship's entire track history